Time;durP1;ratioP1;P1;durP2;ratioP2;P2;SDS_P1;SDS_P2;PMS_P1;PMS_P2;Temp;Humidity;BMP_temperature;BMP_pressure;BME280_temperature;BME280_humidity;BME280_pressure;Samples;Min_cycle;Max_cycle;Signal;HPM_P1;HPM_P2
2022/06/10 00:00:02;;;;;;;15.27;3.50;;;;;;;19.51;100.00;101924.97;5019601;28;20042;-52
2022/06/10 00:02:30;;;;;;;17.50;3.93;;;;;;;19.13;100.00;101934.19;5022033;28;20144;-49
2022/06/10 00:04:56;;;;;;;15.90;3.95;;;;;;;19.19;100.00;101933.31;5027370;28;20279;-54
2022/06/10 00:07:21;;;;;;;12.95;3.17;;;;;;;18.98;100.00;101931.84;5016291;28;20039;-51
2022/06/10 00:09:47;;;;;;;15.20;3.35;;;;;;;18.83;100.00;101934.91;5027815;28;20266;-48
2022/06/10 00:12:12;;;;;;;13.60;3.33;;;;;;;18.93;100.00;101927.13;5021397;28;20087;-49
2022/06/10 00:14:38;;;;;;;12.43;3.65;;;;;;;18.81;100.00;101931.59;5020675;28;20042;-50
2022/06/10 00:17:04;;;;;;;11.80;3.28;;;;;;;18.79;100.00;101926.41;5028185;28;20059;-48
2022/06/10 00:19:30;;;;;;;10.73;4.47;;;;;;;18.91;100.00;101926.47;5022065;28;20092;-49
2022/06/10 00:21:56;;;;;;;15.82;4.88;;;;;;;19.05;100.00;101929.94;5026556;28;20296;-49
2022/06/10 00:24:21;;;;;;;14.18;3.95;;;;;;;18.83;100.00;101929.50;5029119;28;20045;-51
2022/06/10 00:26:46;;;;;;;15.20;3.80;;;;;;;18.76;100.00;101924.13;5018845;28;20042;-50
2022/06/10 00:29:12;;;;;;;17.70;4.90;;;;;;;18.62;100.00;101928.84;4995982;28;20062;-49
2022/06/10 00:31:38;;;;;;;17.27;3.50;;;;;;;18.59;100.00;101932.03;5012720;28;20093;-52
2022/06/10 00:34:04;;;;;;;13.77;3.83;;;;;;;18.51;100.00;101927.72;5019480;28;20091;-49
2022/06/10 00:36:30;;;;;;;18.67;4.40;;;;;;;18.56;100.00;101925.16;5021606;28;20049;-46
2022/06/10 00:38:56;;;;;;;12.85;4.43;;;;;;;18.42;100.00;101924.44;5026741;28;20287;-49
2022/06/10 00:41:21;;;;;;;15.52;4.68;;;;;;;18.36;100.00;101936.19;5015852;28;20047;-48
2022/06/10 00:43:47;;;;;;;16.73;4.70;;;;;;;18.51;100.00;101926.91;5027597;28;20067;-47
2022/06/10 00:46:23;;;;;;;9.93;4.90;;;;;;;18.44;100.00;101930.47;5020974;28;20041;-48
2022/06/10 00:49:07;;;;;;;14.47;4.53;;;;;;;18.34;100.00;101925.59;5019097;28;20101;-48
2022/06/10 00:51:41;;;;;;;21.80;5.07;;;;;;;18.43;100.00;101919.88;5028490;28;20269;-49
2022/06/10 00:54:28;;;;;;;19.03;5.40;;;;;;;18.31;100.00;101923.28;5100942;28;20305;-49
2022/06/10 00:57:13;;;;;;;11.63;4.22;;;;;;;18.26;100.00;101915.00;5018482;28;20347;-48
2022/06/10 00:59:44;;;;;;;12.60;5.13;;;;;;;18.63;100.00;101925.09;5012919;28;20034;-47
2022/06/10 01:02:13;;;;;;;14.83;4.93;;;;;;;18.30;100.00;101915.41;5020143;28;20263;-52
2022/06/10 01:04:40;;;;;;;18.63;5.30;;;;;;;18.21;100.00;101912.13;5020409;28;20272;-52
2022/06/10 01:07:08;;;;;;;11.63;5.03;;;;;;;18.11;100.00;101912.63;5027927;28;20267;-49
2022/06/10 01:09:35;;;;;;;11.73;5.13;;;;;;;17.92;100.00;101912.50;5015606;28;20287;-48
2022/06/10 01:12:09;;;;;;;19.50;5.20;;;;;;;17.94;100.00;101909.59;5025168;28;20297;-47
2022/06/10 01:14:54;;;;;;;10.43;5.33;;;;;;;18.25;100.00;101923.38;5012174;28;20295;-47
2022/06/10 01:17:38;;;;;;;17.97;5.13;;;;;;;18.35;100.00;101912.84;5028153;28;20288;-49
2022/06/10 01:20:36;;;;;;;18.13;5.37;;;;;;;18.18;100.00;101918.81;5019006;28;20271;-52
2022/06/10 01:23:21;;;;;;;16.63;5.53;;;;;;;18.19;100.00;101917.75;5016857;28;20272;-47
2022/06/10 01:26:15;;;;;;;12.97;4.80;;;;;;;18.19;100.00;101916.94;5016598;28;20344;-48
2022/06/10 01:29:15;;;;;;;12.77;5.27;;;;;;;18.29;100.00;101911.03;5019950;28;20283;-52
2022/06/10 01:31:52;;;;;;;16.07;4.90;;;;;;;18.26;100.00;101914.19;5011875;28;20264;-49
2022/06/10 01:34:34;;;;;;;15.45;5.47;;;;;;;18.53;100.00;101913.97;5020276;28;20284;-50
2022/06/10 01:37:18;;;;;;;18.97;5.67;;;;;;;18.63;100.00;101914.25;5016839;28;20059;-50
2022/06/10 01:40:08;;;;;;;23.63;5.97;;;;;;;18.62;100.00;101916.16;5015825;28;20278;-49
2022/06/10 01:42:59;;;;;;;13.03;5.33;;;;;;;18.65;100.00;101912.16;5020630;28;20354;-52
2022/06/10 01:45:42;;;;;;;17.23;5.17;;;;;;;18.56;100.00;101913.50;5027893;28;20275;-49
2022/06/10 01:48:17;;;;;;;19.23;6.03;;;;;;;18.85;100.00;101914.69;5018936;28;20357;-49
2022/06/10 01:50:51;;;;;;;15.60;4.97;;;;;;;18.41;100.00;101916.56;5019590;28;20288;-49
2022/06/10 01:53:36;;;;;;;18.43;5.70;;;;;;;18.54;100.00;101921.03;5027472;28;20342;-49
2022/06/10 01:56:19;;;;;;;15.67;5.93;;;;;;;18.55;100.00;101918.09;5018035;28;20308;-48
2022/06/10 01:58:54;;;;;;;21.67;6.20;;;;;;;18.35;100.00;101918.28;5018995;28;20299;-51
2022/06/10 02:01:26;;;;;;;18.50;5.17;;;;;;;18.31;100.00;101922.47;5027697;28;20275;-51
2022/06/10 02:03:56;;;;;;;11.23;5.53;;;;;;;18.25;100.00;101921.47;5016631;28;20285;-47
2022/06/10 02:06:31;;;;;;;17.50;4.93;;;;;;;18.61;100.00;101921.78;5021928;28;20275;-48
2022/06/10 02:09:09;;;;;;;13.67;4.90;;;;;;;18.87;100.00;101918.00;5025088;28;20283;-52
2022/06/10 02:11:38;;;;;;;18.70;5.37;;;;;;;18.84;100.00;101918.44;5012171;28;20284;-46
2022/06/10 02:14:11;;;;;;;12.13;4.53;;;;;;;18.74;100.00;101910.84;5001236;28;20297;-49
2022/06/10 02:16:43;;;;;;;16.60;4.97;;;;;;;18.96;100.00;101915.81;5019884;28;20284;-49
2022/06/10 02:19:31;;;;;;;10.57;4.27;;;;;;;19.17;100.00;101908.31;5026649;28;20279;-48
2022/06/10 02:22:06;;;;;;;15.20;4.80;;;;;;;19.03;100.00;101913.03;5016270;28;20309;-48
2022/06/10 02:24:44;;;;;;;13.03;3.33;;;;;;;18.89;100.00;101912.31;5020555;28;20268;-48
2022/06/10 02:27:15;;;;;;;15.80;4.17;;;;;;;19.14;100.00;101916.88;5026823;28;20339;-54
2022/06/10 02:30:01;;;;;;;16.20;4.10;;;;;;;19.04;100.00;101899.25;5014456;28;20274;-52
2022/06/10 02:32:28;;;;;;;16.17;3.60;;;;;;;18.91;100.00;101907.50;5030584;28;20276;-50
2022/06/10 02:34:55;;;;;;;14.23;2.90;;;;;;;18.86;100.00;101908.19;5017443;28;20291;-52
2022/06/10 02:37:42;;;;;;;15.23;3.33;;;;;;;19.18;100.00;101920.81;5027105;28;20318;-50
2022/06/10 02:40:16;;;;;;;15.10;2.90;;;;;;;19.32;100.00;101916.84;5018074;28;20299;-50
2022/06/10 02:43:00;;;;;;;22.50;4.37;;;;;;;19.23;100.00;101918.25;5018881;28;20089;-48
2022/06/10 02:45:35;;;;;;;21.17;3.83;;;;;;;18.89;100.00;101921.31;5027040;28;20274;-48
2022/06/10 02:48:17;;;;;;;20.20;4.30;;;;;;;19.15;100.00;101932.13;5017262;28;20292;-53
2022/06/10 02:50:45;;;;;;;11.87;2.53;;;;;;;19.06;100.00;101923.44;5022244;28;20328;-51
2022/06/10 02:53:12;;;;;;;20.80;2.70;;;;;;;19.18;100.00;101912.69;5014517;28;20272;-52
2022/06/10 02:55:38;;;;;;;8.40;2.60;;;;;;;19.78;100.00;101913.75;5030368;28;20341;-52
2022/06/10 03:01:20;;;;;;;15.13;3.13;;;;;;;19.18;100.00;101920.81;5021264;28;20273;-49
2022/06/10 03:03:52;;;;;;;13.73;2.93;;;;;;;19.29;100.00;101925.47;5018238;28;20263;-47
2022/06/10 03:06:27;;;;;;;15.93;3.60;;;;;;;19.44;100.00;101929.66;5025467;28;20362;-48
2022/06/10 03:09:06;;;;;;;17.57;3.20;;;;;;;19.54;100.00;101935.38;5027111;28;20298;-46
2022/06/10 03:11:39;;;;;;;18.27;3.87;;;;;;;18.98;100.00;101932.72;5015344;28;20272;-52
2022/06/10 03:14:26;;;;;;;13.33;3.30;;;;;;;18.81;100.00;101939.72;5020493;28;20268;-50
2022/06/10 03:17:17;;;;;;;13.27;2.78;;;;;;;19.20;100.00;101938.50;5019675;28;20360;-53
2022/06/10 03:19:47;;;;;;;12.20;3.57;;;;;;;19.03;100.00;101946.41;5013905;28;20084;-49
2022/06/10 03:22:55;;;;;;;10.37;2.60;;;;;;;18.96;100.00;101939.38;5021453;28;20271;-53
2022/06/10 03:25:27;;;;;;;10.18;2.72;;;;;;;18.91;100.00;101943.59;4986404;28;20280;-49
2022/06/10 03:28:01;;;;;;;10.27;2.73;;;;;;;19.04;100.00;101944.53;5028796;28;20030;-49
2022/06/10 03:30:35;;;;;;;10.10;3.00;;;;;;;19.08;100.00;101950.31;5005979;28;20305;-51
2022/06/10 03:33:21;;;;;;;13.47;3.10;;;;;;;19.23;100.00;101950.78;5019285;28;20295;-52
2022/06/10 03:35:55;;;;;;;11.87;3.13;;;;;;;18.95;100.00;101949.41;5029435;28;20280;-53
2022/06/10 03:38:21;;;;;;;15.50;2.50;;;;;;;18.83;100.00;101952.03;5022154;28;20331;-47
2022/06/10 03:40:56;;;;;;;11.85;3.10;;;;;;;18.77;100.00;101952.88;5021024;28;20282;-48
2022/06/10 03:43:23;;;;;;;13.43;2.70;;;;;;;18.65;100.00;101954.69;5029683;28;20038;-50
2022/06/10 03:45:58;;;;;;;18.70;3.53;;;;;;;18.65;100.00;101958.22;5017539;28;20267;-51
2022/06/10 03:48:25;;;;;;;16.37;3.50;;;;;;;18.87;100.00;101964.06;5024259;28;20264;-51
2022/06/10 03:50:51;;;;;;;13.10;3.17;;;;;;;19.10;100.00;101964.47;5025812;28;20267;-54
2022/06/10 03:53:21;;;;;;;15.45;2.95;;;;;;;18.89;100.00;101952.97;5017118;28;20313;-51
2022/06/10 03:55:47;;;;;;;11.90;2.83;;;;;;;18.68;100.00;101960.47;5017595;28;20062;-49
2022/06/10 03:58:13;;;;;;;13.90;4.32;;;;;;;18.55;100.00;101966.03;5025856;28;20316;-47
2022/06/10 04:00:39;;;;;;;16.10;6.03;;;;;;;18.31;100.00;101971.22;5022995;28;20065;-47
2022/06/10 04:03:05;;;;;;;16.17;6.03;;;;;;;18.42;100.00;101966.97;5019238;28;20073;-49
2022/06/10 04:05:32;;;;;;;21.17;4.88;;;;;;;18.55;100.00;101963.31;5029537;28;20271;-47
2022/06/10 04:07:57;;;;;;;25.27;5.13;;;;;;;18.41;100.00;101978.84;5018777;28;20037;-50
2022/06/10 04:10:26;;;;;;;19.75;4.18;;;;;;;18.65;100.00;101971.75;5024231;28;20068;-51
2022/06/10 04:12:52;;;;;;;10.90;3.27;;;;;;;19.06;100.00;101978.47;5026034;28;20062;-51
2022/06/10 04:15:19;;;;;;;13.75;3.45;;;;;;;18.97;100.00;101970.84;5016835;28;20300;-51
2022/06/10 04:17:47;;;;;;;15.30;3.15;;;;;;;19.25;100.00;101967.66;5016726;28;20026;-51
2022/06/10 04:20:24;;;;;;;12.40;3.77;;;;;;;19.65;100.00;101969.03;5025508;28;20042;-48
2022/06/10 04:22:50;;;;;;;17.23;4.17;;;;;;;19.49;100.00;101971.34;5025282;28;20290;-51
2022/06/10 04:25:16;;;;;;;14.50;4.03;;;;;;;18.91;100.00;101983.41;5017161;28;20275;-51
2022/06/10 04:27:43;;;;;;;11.02;3.47;;;;;;;19.32;100.00;101983.84;5029220;28;20344;-51
2022/06/10 04:30:22;;;;;;;12.45;2.85;;;;;;;19.14;100.00;101990.06;5019727;28;20045;-48
2022/06/10 04:32:48;;;;;;;10.57;3.37;;;;;;;19.35;100.00;101984.22;5020688;28;20057;-50
2022/06/10 04:35:14;;;;;;;14.77;2.90;;;;;;;19.42;100.00;101986.03;5013012;28;20296;-51
2022/06/10 04:37:40;;;;;;;16.30;3.33;;;;;;;19.41;100.00;101976.25;5029299;28;20054;-50
2022/06/10 04:40:06;;;;;;;9.98;3.00;;;;;;;19.65;100.00;101973.66;5013266;28;20010;-50
2022/06/10 04:42:32;;;;;;;9.07;2.53;;;;;;;20.05;100.00;101973.09;5022780;28;20066;-51
2022/06/10 04:44:58;;;;;;;10.68;2.65;;;;;;;20.04;100.00;101966.84;5019575;28;20062;-47
2022/06/10 04:47:24;;;;;;;11.48;2.70;;;;;;;20.12;100.00;101965.69;5028959;28;20049;-50
2022/06/10 04:49:49;;;;;;;14.37;3.10;;;;;;;19.97;100.00;101973.44;5016821;28;20054;-49
2022/06/10 04:52:15;;;;;;;8.30;2.72;;;;;;;20.00;100.00;101971.09;5025101;28;20038;-51
2022/06/10 04:54:40;;;;;;;8.13;2.33;;;;;;;19.91;100.00;101973.31;5012742;28;20085;-53
2022/06/10 04:57:06;;;;;;;14.82;2.70;;;;;;;20.08;100.00;101967.22;5026962;28;20105;-52
2022/06/10 04:59:32;;;;;;;13.98;2.55;;;;;;;20.20;100.00;101967.25;5014285;28;20031;-48
2022/06/10 05:01:58;;;;;;;9.40;2.90;;;;;;;20.29;100.00;101960.41;5017760;28;20053;-49
2022/06/10 05:04:23;;;;;;;11.23;3.60;;;;;;;20.52;100.00;101971.53;5023809;28;20084;-48
2022/06/10 05:06:49;;;;;;;13.70;2.85;;;;;;;20.62;100.00;101967.16;5024483;28;20045;-49
2022/06/10 05:09:14;;;;;;;19.25;3.45;;;;;;;20.23;100.00;101964.06;5016948;28;20046;-51
2022/06/10 05:11:40;;;;;;;8.35;2.40;;;;;;;20.09;100.00;101962.59;5028068;28;20045;-48
2022/06/10 05:14:05;;;;;;;11.70;2.83;;;;;;;19.97;100.00;101962.56;5012730;28;20094;-52
2022/06/10 05:16:31;;;;;;;8.65;2.95;;;;;;;19.97;100.00;101966.13;5021756;28;20057;-48
2022/06/10 05:18:57;;;;;;;9.30;2.28;;;;;;;20.15;100.00;101965.22;5019214;28;20034;-49
2022/06/10 05:21:23;;;;;;;14.23;3.08;;;;;;;20.26;100.00;101966.31;5028478;28;20033;-52
2022/06/10 05:23:49;;;;;;;13.88;2.97;;;;;;;20.45;100.00;101964.31;5016180;28;20050;-50
2022/06/10 05:26:16;;;;;;;14.52;3.78;;;;;;;20.55;100.00;101958.31;5025144;28;20030;-51
2022/06/10 05:28:41;;;;;;;14.37;3.37;;;;;;;20.44;100.00;101962.66;5022961;28;20120;-48
2022/06/10 05:31:07;;;;;;;17.88;3.10;;;;;;;20.28;100.00;101968.78;5017732;28;20280;-51
2022/06/10 05:36:18;;;;;;;13.87;3.50;;;;;;;20.52;100.00;101960.66;5019521;28;20042;-49
2022/06/10 05:38:44;;;;;;;11.43;3.15;;;;;;;19.93;100.00;101967.63;5020820;28;20295;-51
2022/06/10 05:43:55;;;;;;;11.40;2.70;;;;;;;20.10;100.00;101958.84;5016720;28;20292;-51
2022/06/10 05:46:21;;;;;;;18.42;2.95;;;;;;;19.98;100.00;101961.50;5006751;28;20350;-51
2022/06/10 05:48:47;;;;;;;11.68;2.85;;;;;;;20.02;100.00;101976.28;5023328;28;20054;-50
2022/06/10 05:51:12;;;;;;;8.57;2.55;;;;;;;20.26;100.00;101965.47;5031129;28;20033;-51
2022/06/10 05:53:38;;;;;;;9.85;2.33;;;;;;;20.30;100.00;101959.34;5029203;28;20053;-48
2022/06/10 05:56:04;;;;;;;9.40;3.00;;;;;;;20.57;100.00;101969.78;5017326;28;20042;-51
2022/06/10 05:58:30;;;;;;;10.35;3.15;;;;;;;20.48;100.00;101972.00;5022214;28;20022;-51
2022/06/10 06:00:56;;;;;;;12.23;3.10;;;;;;;20.37;100.00;101963.84;5024169;28;20048;-49
2022/06/10 06:03:24;;;;;;;8.43;2.70;;;;;;;20.60;100.00;101968.47;5015165;28;20038;-52
2022/06/10 06:05:49;;;;;;;7.83;3.30;;;;;;;20.92;100.00;101973.56;5015181;28;20042;-52
2022/06/10 06:08:15;;;;;;;7.35;2.22;;;;;;;20.95;100.00;101964.13;5031401;28;20060;-51
2022/06/10 06:10:41;;;;;;;9.18;2.60;;;;;;;21.16;100.00;101976.25;5003708;28;20045;-48
2022/06/10 06:13:06;;;;;;;13.93;3.00;;;;;;;20.97;100.00;101970.16;5011894;28;20045;-50
2022/06/10 06:15:32;;;;;;;11.77;2.72;;;;;;;21.08;100.00;101971.22;5011301;28;20039;-50
2022/06/10 06:17:57;;;;;;;9.77;2.27;;;;;;;20.97;100.00;101979.13;5016192;28;20045;-52
2022/06/10 06:20:23;;;;;;;9.57;2.65;;;;;;;21.01;100.00;101983.03;5031131;28;20046;-48
2022/06/10 06:22:49;;;;;;;11.57;3.08;;;;;;;20.76;100.00;101984.09;5030762;28;20073;-48
2022/06/10 06:25:16;;;;;;;14.88;3.10;;;;;;;21.19;100.00;101982.06;5033871;28;20030;-50
2022/06/10 06:27:43;;;;;;;9.07;3.00;;;;;;;21.12;100.00;101992.25;5018294;28;20081;-51
2022/06/10 06:30:18;;;;;;;14.00;4.10;;;;;;;21.23;100.00;101992.47;5028638;28;20042;-51
2022/06/10 06:32:44;;;;;;;10.00;2.60;;;;;;;21.22;100.00;101997.09;5015037;28;20113;-48
2022/06/10 06:35:09;;;;;;;14.10;2.88;;;;;;;21.28;100.00;101996.13;5015084;28;20042;-51
2022/06/10 06:37:34;;;;;;;18.88;3.90;;;;;;;21.34;100.00;102010.66;5015258;28;20045;-50
2022/06/10 06:40:00;;;;;;;10.35;2.83;;;;;;;21.01;100.00;102002.09;5014921;28;20037;-49
2022/06/10 06:42:26;;;;;;;20.38;3.72;;;;;;;21.28;100.00;101995.28;5022986;28;20064;-53
2022/06/10 06:45:00;;;;;;;9.40;3.03;;;;;;;21.15;100.00;101996.38;5004159;28;20057;-53
2022/06/10 06:47:26;;;;;;;9.40;2.83;;;;;;;21.43;100.00;102002.94;5030980;28;20029;-52
2022/06/10 06:49:51;;;;;;;12.32;3.08;;;;;;;21.16;100.00;102003.47;5030572;28;20049;-52
2022/06/10 06:52:17;;;;;;;9.63;2.60;;;;;;;21.38;100.00;102008.28;5014608;28;20031;-51
2022/06/10 06:54:42;;;;;;;10.95;2.53;;;;;;;21.43;100.00;102014.66;5022390;28;20042;-52
2022/06/10 06:57:07;;;;;;;8.43;2.70;;;;;;;21.68;100.00;102010.00;5032867;28;20042;-53
2022/06/10 06:59:34;;;;;;;8.50;2.60;;;;;;;21.63;100.00;102018.88;5028407;28;20387;-53
2022/06/10 07:02:00;;;;;;;10.70;2.80;;;;;;;21.59;100.00;102013.06;5030814;28;20069;-51
2022/06/10 07:04:26;;;;;;;15.40;2.78;;;;;;;21.53;100.00;102018.66;5028274;28;20038;-54
2022/06/10 07:06:51;;;;;;;8.45;2.22;;;;;;;21.67;100.00;102017.34;5024871;28;20030;-54
2022/06/10 07:09:16;;;;;;;16.55;2.72;;;;;;;21.76;100.00;102021.31;5029912;28;20026;-53
2022/06/10 07:11:42;;;;;;;8.17;2.30;;;;;;;21.80;100.00;102027.13;5024913;28;20047;-54
2022/06/10 07:14:08;;;;;;;9.95;2.33;;;;;;;22.02;100.00;102016.34;5025107;28;20275;-52
2022/06/10 07:16:33;;;;;;;10.82;2.78;;;;;;;21.91;100.00;102012.66;5028153;28;20073;-52
2022/06/10 07:18:59;;;;;;;8.07;1.95;;;;;;;21.81;100.00;102015.16;5034454;28;20067;-50
2022/06/10 07:21:24;;;;;;;10.90;2.22;;;;;;;22.35;100.00;102016.66;5025586;28;20049;-48
2022/06/10 07:23:49;;;;;;;10.20;2.05;;;;;;;22.50;100.00;102021.59;5027997;28;20113;-50
2022/06/10 07:26:16;;;;;;;9.20;2.60;;;;;;;22.20;100.00;102023.50;5008201;28;20033;-50
2022/06/10 07:28:41;;;;;;;9.10;3.15;;;;;;;22.36;100.00;102021.03;5027903;28;20038;-54
2022/06/10 07:31:07;;;;;;;8.90;2.22;;;;;;;22.78;100.00;102028.84;5030806;28;20038;-50
2022/06/10 07:33:35;;;;;;;13.23;2.70;;;;;;;22.63;100.00;102036.78;5026858;28;20041;-50
2022/06/10 07:36:04;;;;;;;16.23;3.57;;;;;;;22.50;100.00;102021.59;5028980;28;20039;-53
2022/06/10 07:38:30;;;;;;;6.07;2.43;;;;;;;22.86;100.00;102029.50;5030320;28;20053;-53
2022/06/10 07:43:41;;;;;;;10.57;2.50;;;;;;;23.01;100.00;102031.63;5031306;28;20034;-48
2022/06/10 07:46:10;;;;;;;15.10;2.63;;;;;;;23.27;100.00;102019.19;5030299;28;20033;-53
2022/06/10 07:48:36;;;;;;;12.80;2.57;;;;;;;23.45;100.00;102020.78;5024838;28;20038;-52
2022/06/10 07:51:01;;;;;;;6.50;2.10;;;;;;;23.52;100.00;102025.22;5027651;28;20041;-51
2022/06/10 07:53:29;;;;;;;11.48;2.55;;;;;;;23.60;100.00;102028.34;5021703;28;20115;-53
2022/06/10 07:55:55;;;;;;;8.57;2.00;;;;;;;23.64;100.00;102017.72;5022116;28;20097;-50
2022/06/10 07:58:20;;;;;;;6.25;1.80;;;;;;;23.45;100.00;102031.72;5022601;28;20046;-50
2022/06/10 08:00:45;;;;;;;8.57;2.05;;;;;;;23.62;100.00;102037.09;5021235;28;20046;-47
2022/06/10 08:03:11;;;;;;;13.43;2.58;;;;;;;23.22;100.00;102038.19;5014211;28;20034;-54
2022/06/10 08:05:36;;;;;;;9.20;2.30;;;;;;;23.48;100.00;102024.91;5023502;28;20037;-52
2022/06/10 08:08:03;;;;;;;12.70;2.60;;;;;;;23.31;100.00;102036.72;5025833;28;20048;-52
2022/06/10 08:10:30;;;;;;;;;;;;;;;23.23;100.00;102028.91;5026866;28;20041;-49
2022/06/10 08:12:56;;;;;;;12.60;2.30;;;;;;;23.56;100.00;102035.41;5027088;28;19913;-51
2022/06/10 08:15:23;;;;;;;14.35;4.10;;;;;;;23.66;100.00;102028.38;5015008;28;20069;-49
2022/06/10 08:17:49;;;;;;;8.90;2.20;;;;;;;23.90;100.00;102048.06;5015550;28;20046;-52
2022/06/10 08:23:12;;;;;;;10.03;2.87;;;;;;;23.44;100.00;102034.69;5026839;28;20033;-49
2022/06/10 08:25:38;;;;;;;;;;;;;;;23.38;100.00;102033.78;5023084;28;20037;-50
2022/06/10 08:28:04;;;;;;;14.20;2.67;;;;;;;23.71;100.00;102055.75;5024312;28;19913;-47
2022/06/10 08:30:29;;;;;;;9.93;3.10;;;;;;;23.78;100.00;102037.28;5029599;28;20045;-50
2022/06/10 08:32:55;;;;;;;8.95;2.70;;;;;;;23.97;100.00;102034.19;5023550;28;20120;-48
2022/06/10 08:35:20;;;;;;;10.77;2.58;;;;;;;24.30;100.00;102029.63;5016865;28;20111;-51
2022/06/10 08:37:46;;;;;;;13.82;3.35;;;;;;;24.11;100.00;102031.91;5014950;28;20057;-52
2022/06/10 08:40:25;;;;;;;7.18;2.10;;;;;;;24.39;100.00;102032.72;5032168;28;20038;-51
2022/06/10 08:42:54;;;;;;;17.63;2.30;;;;;;;24.14;100.00;102034.13;5032150;28;20034;-54
2022/06/10 08:45:47;;;;;;;14.97;2.87;;;;;;;24.12;100.00;102044.50;5032252;28;20022;-50
2022/06/10 08:48:29;;;;;;;6.77;2.53;;;;;;;24.37;100.00;102023.94;5017719;28;20049;-47
2022/06/10 08:51:19;;;;;;;11.00;2.43;;;;;;;24.29;100.00;102027.97;5020419;28;20039;-52
2022/06/10 08:54:09;;;;;;;10.93;2.63;;;;;;;24.63;100.00;102035.91;5014002;28;20106;-53
2022/06/10 08:56:54;;;;;;;12.70;2.33;;;;;;;24.42;100.00;102023.97;5032129;28;20040;-51
2022/06/10 08:59:28;;;;;;;10.67;3.07;;;;;;;24.44;100.00;102036.28;5029675;28;20037;-48
2022/06/10 09:02:08;;;;;;;15.80;2.97;;;;;;;24.34;100.00;102031.59;5012307;28;20064;-52
2022/06/10 09:04:53;;;;;;;10.03;2.30;;;;;;;24.42;100.00;102032.19;5020461;28;20038;-51
2022/06/10 09:07:28;;;;;;;11.87;2.93;;;;;;;24.51;100.00;102046.22;5016698;28;20049;-50
2022/06/10 09:09:57;;;;;;;13.20;2.90;;;;;;;24.47;100.00;102062.28;5011990;28;20034;-49
2022/06/10 09:12:39;;;;;;;11.03;2.70;;;;;;;24.67;100.00;102028.81;5012745;28;20064;-49
2022/06/10 09:15:05;;;;;;;11.93;3.60;;;;;;;24.96;100.00;102025.78;5019251;28;20049;-50
2022/06/10 09:17:38;;;;;;;9.43;2.47;;;;;;;24.54;100.00;102032.00;5020557;28;20029;-47
2022/06/10 09:20:13;;;;;;;15.37;4.40;;;;;;;24.49;100.00;102019.94;5018664;28;20030;-52
2022/06/10 09:22:49;;;;;;;14.10;3.70;;;;;;;24.69;100.00;102018.47;5004469;28;20053;-50
2022/06/10 09:25:33;;;;;;;12.63;3.20;;;;;;;24.39;100.00;102028.06;5021480;28;20053;-51
2022/06/10 09:28:00;;;;;;;11.93;2.67;;;;;;;24.67;100.00;102022.53;5023079;28;20041;-48
2022/06/10 09:30:59;;;;;;;10.53;2.73;;;;;;;24.52;100.00;102024.06;5021129;28;20026;-50
2022/06/10 09:33:44;;;;;;;9.77;3.20;;;;;;;24.57;100.00;102034.22;5020370;28;20060;-55
2022/06/10 09:36:27;;;;;;;12.60;2.80;;;;;;;24.60;100.00;102025.47;5021080;28;20037;-50
2022/06/10 09:40:36;;;;;;;16.43;3.73;;;;;;;24.94;100.00;102044.38;5021120;28;20137;-51
2022/06/10 09:42:31;;;;;;;8.10;2.07;;;;;;;25.22;100.00;102023.16;5021019;28;20027;-49
2022/06/10 09:45:09;;;;;;;15.93;2.37;;;;;;;25.64;100.00;102029.66;5023216;28;20034;-48
2022/06/10 09:47:52;;;;;;;13.77;3.33;;;;;;;26.19;100.00;102035.56;5022119;28;20056;-49
2022/06/10 09:50:59;;;;;;;9.67;2.23;;;;;;;26.81;100.00;102037.44;5021026;28;20034;-48
2022/06/10 09:53:44;;;;;;;10.37;2.93;;;;;;;27.04;100.00;102049.78;5027544;28;20041;-52
2022/06/10 09:56:55;;;;;;;14.03;2.50;;;;;;;27.52;100.00;102048.53;5020937;28;20059;-50
2022/06/10 09:59:27;;;;;;;9.20;3.03;;;;;;;28.36;100.00;102038.66;5026036;28;20056;-53
2022/06/10 10:02:31;;;;;;;14.00;3.37;;;;;;;27.80;100.00;102045.38;5023093;28;20068;-49
2022/06/10 10:05:05;;;;;;;10.57;4.17;;;;;;;27.83;100.00;102047.56;5025985;28;20061;-50
2022/06/10 10:07:37;;;;;;;13.30;3.55;;;;;;;28.82;100.00;102042.13;5015099;28;20030;-51
2022/06/10 10:10:14;;;;;;;14.15;5.72;;;;;;;29.37;100.00;102052.00;5014090;28;20033;-48
2022/06/10 10:12:56;;;;;;;12.73;3.15;;;;;;;28.98;100.00;102038.09;5029555;28;20093;-52
2022/06/10 10:15:35;;;;;;;12.55;3.88;;;;;;;28.85;100.00;102049.84;5029545;28;20037;-47
2022/06/10 10:18:01;;;;;;;9.73;2.63;;;;;;;29.27;100.00;102063.97;5013206;28;20048;-51
2022/06/10 10:20:58;;;;;;;10.50;3.80;;;;;;;29.68;100.00;102054.38;5029831;28;20034;-52
2022/06/10 10:23:36;;;;;;;13.68;2.92;;;;;;;29.50;100.00;102045.78;5030641;28;20094;-50
2022/06/10 10:26:13;;;;;;;8.95;2.60;;;;;;;29.56;100.00;102041.84;5013617;28;20027;-50
2022/06/10 10:28:42;;;;;;;11.82;4.70;;;;;;;29.55;100.00;102033.88;5020518;28;20102;-46
2022/06/10 10:31:26;;;;;;;9.30;2.33;;;;;;;28.25;100.00;102045.38;5037541;28;20038;-49
2022/06/10 10:33:52;;;;;;;11.45;3.55;;;;;;;27.85;100.00;102037.09;5027737;28;20046;-47
2022/06/10 10:36:35;;;;;;;11.27;3.83;;;;;;;27.83;100.00;102031.06;4999226;28;20072;-48
2022/06/10 10:39:40;;;;;;;16.77;3.93;;;;;;;27.43;100.00;102033.69;5017958;28;20026;-51
2022/06/10 10:42:22;;;;;;;11.43;2.67;;;;;;;28.00;100.00;102036.19;5010359;28;20058;-49
2022/06/10 10:45:02;;;;;;;13.70;2.80;;;;;;;27.53;100.00;102032.88;5010319;28;20077;-52
2022/06/10 10:47:28;;;;;;;12.53;3.37;;;;;;;27.23;100.00;102034.63;5025723;28;20038;-52
2022/06/10 10:50:03;;;;;;;18.07;4.77;;;;;;;27.45;100.00;102037.00;5014133;28;20048;-48
2022/06/10 10:52:39;;;;;;;10.43;2.70;;;;;;;27.67;100.00;102036.66;5022900;28;20036;-52
2022/06/10 10:55:11;;;;;;;16.27;2.73;;;;;;;27.96;100.00;102038.66;5023216;28;20042;-49
2022/06/10 10:57:41;;;;;;;14.57;3.60;;;;;;;28.50;100.00;102041.59;5014062;28;20038;-50
2022/06/10 11:00:10;;;;;;;14.87;2.73;;;;;;;29.15;100.00;102036.81;5025983;28;20090;-48
2022/06/10 11:02:40;;;;;;;12.63;2.90;;;;;;;28.84;100.00;102040.75;5010764;28;20107;-47
2022/06/10 11:05:15;;;;;;;7.85;2.60;;;;;;;30.20;100.00;102046.19;5023447;28;20042;-47
2022/06/10 11:07:42;;;;;;;10.30;2.60;;;;;;;30.24;100.00;102044.44;5014005;28;20115;-50
2022/06/10 11:10:18;;;;;;;14.18;2.60;;;;;;;29.52;100.00;102032.53;5026913;28;20045;-48
2022/06/10 11:12:44;;;;;;;14.07;2.58;;;;;;;29.38;100.00;102037.09;5023566;28;20040;-50
2022/06/10 11:15:36;;;;;;;11.18;2.38;;;;;;;29.69;100.00;102040.31;5020282;28;20038;-50
2022/06/10 11:18:02;;;;;;;9.98;3.10;;;;;;;28.97;100.00;102038.41;5017754;28;20071;-49
2022/06/10 11:20:31;;;;;;;10.68;3.40;;;;;;;29.03;100.00;102042.75;5036721;28;20093;-52
2022/06/10 11:23:29;;;;;;;13.40;3.58;;;;;;;30.14;100.00;102045.44;5042127;28;20060;-52
2022/06/10 11:26:11;;;;;;;12.15;2.88;;;;;;;29.68;100.00;102048.84;5027530;28;20075;-49
2022/06/10 11:28:39;;;;;;;10.20;3.03;;;;;;;29.23;100.00;102038.13;5025341;28;20034;-50
2022/06/10 11:31:45;;;;;;;13.68;4.07;;;;;;;28.74;100.00;102032.56;5025662;28;20053;-53
2022/06/10 11:34:21;;;;;;;7.33;3.57;;;;;;;27.75;100.00;102035.25;4935078;29;20052;-50
2022/06/10 11:36:53;;;;;;;15.13;4.30;;;;;;;27.63;100.00;102035.56;5015623;28;20140;-52
2022/06/10 11:39:29;;;;;;;12.97;3.80;;;;;;;28.04;100.00;102029.84;5019446;28;20038;-52
2022/06/10 11:41:59;;;;;;;12.00;3.70;;;;;;;27.93;100.00;102028.25;5029864;28;20049;-53
2022/06/10 11:44:28;;;;;;;13.67;3.47;;;;;;;29.01;100.00;102028.47;5013598;28;20060;-50
2022/06/10 11:47:00;;;;;;;20.53;4.53;;;;;;;29.09;100.00;102032.50;5023831;28;20030;-50
2022/06/10 11:49:33;;;;;;;17.27;3.50;;;;;;;29.60;100.00;102029.13;5018328;28;20049;-50